createdAt,value
2022-09-23T00:01:17.881Z,4.7
2022-09-23T00:06:17.962Z,5.6
2022-09-23T00:11:17.868Z,6.4
2022-09-23T00:16:17.829Z,5.0
2022-09-23T00:21:17.786Z,4.4
2022-09-23T00:26:17.808Z,5.3
2022-09-23T00:31:17.721Z,3.8
2022-09-23T00:36:17.697Z,3.8
2022-09-23T00:41:17.612Z,4.5
2022-09-23T00:44:20.172Z,4.5
2022-09-23T00:46:17.685Z,3.4
2022-09-23T00:51:17.593Z,5.7
2022-09-23T00:56:17.640Z,4.7
2022-09-23T01:01:17.647Z,3.6
2022-09-23T01:06:17.632Z,4.5
2022-09-23T01:11:17.529Z,3.7
2022-09-23T01:15:26.325Z,3.7
2022-09-23T01:16:17.669Z,5.4
2022-09-23T01:21:17.587Z,3.5
2022-09-23T01:26:17.599Z,2.5
2022-09-23T01:36:17.350Z,2.8
2022-09-23T01:41:17.199Z,3.0
2022-09-23T01:46:17.254Z,3.2
2022-09-23T01:51:17.267Z,2.6
2022-09-23T01:56:17.156Z,3.3
2022-09-23T02:01:17.009Z,4.4
2022-09-23T02:06:17.016Z,3.6
2022-09-23T02:11:16.735Z,3.4
2022-09-23T02:16:16.823Z,2.6
2022-09-23T02:21:16.619Z,3.4
2022-09-23T02:26:16.671Z,2.4
2022-09-23T02:36:16.585Z,4.5
2022-09-23T02:41:16.421Z,3.9
2022-09-23T02:46:16.500Z,2.7
2022-09-23T02:51:16.320Z,2.6
2022-09-23T02:56:16.262Z,2.7
2022-09-23T03:01:16.180Z,3.8
2022-09-23T03:06:16.205Z,2.8
2022-09-23T03:16:16.105Z,3.7
2022-09-23T03:21:15.977Z,2.4
2022-09-23T03:26:15.956Z,2.4
2022-09-23T03:31:15.932Z,3.4
2022-09-23T03:36:15.966Z,3.5
2022-09-23T03:41:15.800Z,3.1
2022-09-23T03:46:15.927Z,2.4
2022-09-23T03:51:15.855Z,2.1
2022-09-23T03:56:15.924Z,5.2
2022-09-23T04:01:15.778Z,2.6
2022-09-23T04:06:16.214Z,2.1
2022-09-23T04:11:15.704Z,5.6
2022-09-23T04:16:15.827Z,2.5
2022-09-23T04:21:15.608Z,2.9
2022-09-23T04:26:15.613Z,2.5
2022-09-23T04:31:15.603Z,5.2
2022-09-23T04:36:15.495Z,14.8
2022-09-23T04:41:15.339Z,20.2
2022-09-23T04:46:15.393Z,19.3
2022-09-23T04:51:15.199Z,12.5
2022-09-23T04:56:15.140Z,6.4
2022-09-23T05:06:14.971Z,9.6
2022-09-23T05:11:14.885Z,10.7
2022-09-23T05:16:14.954Z,10.1
2022-09-23T05:21:14.776Z,11.9
2022-09-23T05:26:14.723Z,12.3
2022-09-23T05:31:19.341Z,11.7
2022-09-23T05:36:14.677Z,8.9
2022-09-23T05:41:14.470Z,12.7
2022-09-23T05:46:14.439Z,10.5
2022-09-23T05:51:14.325Z,8.7
2022-09-23T05:56:14.415Z,11.0
2022-09-23T06:06:13.978Z,10.4
2022-09-23T06:10:54.660Z,10.4
2022-09-23T06:11:13.810Z,13.4
2022-09-23T06:16:13.807Z,9.3
2022-09-23T06:21:13.577Z,13.7
2022-09-23T06:26:13.493Z,12.0
2022-09-23T06:46:13.034Z,12.1
2022-09-23T06:51:12.825Z,12.3
2022-09-23T06:56:12.725Z,11.8
2022-09-23T07:01:12.554Z,9.1
2022-09-23T07:11:12.170Z,11.1
2022-09-23T07:16:12.062Z,7.1
2022-09-23T07:21:12.129Z,6.5
2022-09-23T07:26:11.619Z,11.8
2022-09-23T07:31:11.515Z,8.6
2022-09-23T07:36:11.300Z,7.3
2022-09-23T07:46:11.177Z,3.1
2022-09-23T07:56:10.535Z,7.9
2022-09-23T08:06:10.173Z,8.3
2022-09-23T08:11:09.999Z,5.6
2022-09-23T08:16:10.167Z,8.5
2022-09-23T08:21:09.628Z,5.7
2022-09-23T08:26:16.220Z,8.2
2022-09-23T08:31:09.381Z,4.9
2022-09-23T08:36:09.300Z,4.4
2022-09-23T08:41:09.143Z,5.3
2022-09-23T08:51:08.998Z,4.0
2022-09-23T08:56:08.834Z,7.3
2022-09-23T09:01:08.789Z,6.2
2022-09-23T09:06:08.681Z,9.6
2022-09-23T09:11:08.639Z,6.0
2022-09-23T09:16:08.539Z,6.2
2022-09-23T09:21:08.582Z,6.2
2022-09-23T09:26:08.488Z,5.9
2022-09-23T09:31:08.570Z,5.7
2022-09-23T09:36:08.305Z,6.8
2022-09-23T09:41:08.307Z,8.4
2022-09-23T09:46:08.264Z,8.7
2022-09-23T09:51:08.302Z,6.9
2022-09-23T09:56:08.179Z,6.9
2022-09-23T10:01:08.314Z,6.4
2022-09-23T10:06:08.257Z,9.1
2022-09-23T10:11:08.282Z,7.9
2022-09-23T10:16:08.235Z,5.8
2022-09-23T10:21:08.309Z,11.2
2022-09-23T10:26:08.174Z,9.8
2022-09-23T10:31:08.247Z,5.5
2022-09-23T10:36:08.313Z,6.6
2022-09-23T10:46:08.280Z,4.5
2022-09-23T10:51:08.349Z,6.8
2022-09-23T11:01:08.510Z,4.6
2022-09-23T11:11:08.501Z,6.2
2022-09-23T11:16:08.730Z,5.2
2022-09-23T11:26:08.746Z,6.4
2022-09-23T11:31:08.899Z,6.2
2022-09-23T11:36:09.262Z,5.4
2022-09-23T11:41:09.129Z,5.7
2022-09-23T11:46:09.502Z,1.5
2022-09-23T11:51:09.576Z,2.0
2022-09-23T11:56:09.730Z,1.9
2022-09-23T12:01:09.827Z,5.1
2022-09-23T12:06:09.957Z,2.1
2022-09-23T12:11:10.096Z,1.6
2022-09-23T12:16:10.386Z,1.6
2022-09-23T12:21:27.110Z,1.9
2022-09-23T12:26:10.839Z,3.3
2022-09-23T12:31:12.653Z,4.6
2022-09-23T12:36:11.438Z,2.4
2022-09-23T12:46:12.527Z,1.4
2022-09-23T12:51:12.576Z,1.6
2022-09-23T12:56:12.971Z,3.4
2022-09-23T13:01:13.513Z,2.5
2022-09-23T13:03:29.938Z,2.5
2022-09-23T13:06:47.918Z,3.5
2022-09-23T13:11:15.825Z,3.6
2022-09-23T13:16:14.424Z,3.1
2022-09-23T13:21:14.685Z,3.1
2022-09-23T13:26:15.028Z,2.0
2022-09-23T13:36:15.739Z,1.5
2022-09-23T13:46:16.768Z,3.5
2022-09-23T13:51:22.508Z,3.0
2022-09-23T13:56:17.411Z,1.9
2022-09-23T14:06:18.579Z,1.7
2022-09-23T14:07:29.207Z,1.5
2022-09-23T14:11:19.057Z,3.7
2022-09-23T14:16:19.741Z,1.1
2022-09-23T14:21:20.077Z,1.1
2022-09-23T14:48:38.979Z,2.3
2022-09-23T14:51:22.703Z,2.3
2022-09-23T14:54:46.506Z,1.4
2022-09-23T14:56:23.098Z,2.7
2022-09-23T15:01:32.563Z,1.9
2022-09-23T15:05:00.655Z,1.9
2022-09-23T15:11:23.949Z,1.5
2022-09-23T15:12:35.603Z,1.5
2022-09-23T15:16:24.752Z,7.5
2022-09-23T15:16:52.001Z,7.5
2022-09-23T15:20:09.447Z,7.5
2022-09-23T15:21:57.832Z,0.9
2022-09-23T15:23:55.350Z,0.9
2022-09-23T15:27:07.862Z,2.0
2022-09-23T15:31:40.891Z,2.7
2022-09-23T15:36:25.169Z,1.7
2022-09-23T15:41:25.436Z,1.4
2022-09-23T15:46:25.741Z,2.7
2022-09-23T15:51:25.876Z,1.7
2022-09-23T16:01:26.154Z,0.6
2022-09-23T16:06:27.426Z,0.6
2022-09-23T16:09:32.134Z,1.8
2022-09-23T16:10:13.178Z,1.8
2022-09-23T16:12:07.615Z,0.9
2022-09-23T16:26:26.951Z,2.3
2022-09-23T16:31:27.191Z,2.8
2022-09-23T16:36:27.250Z,2.0
2022-09-23T16:56:28.918Z,0.6
2022-09-23T17:06:28.096Z,0.7
2022-09-23T17:16:28.466Z,1.8
2022-09-23T17:21:28.440Z,1.8
2022-09-23T17:26:28.557Z,2.2
2022-09-23T17:33:59.906Z,2.2
2022-09-23T17:36:52.812Z,1.5
2022-09-23T17:41:28.954Z,4.3
2022-09-23T17:46:28.942Z,3.4
2022-09-23T17:51:30.289Z,5.2
2022-09-23T17:56:29.143Z,1.9
2022-09-23T18:01:29.284Z,2.8
2022-09-23T18:06:29.263Z,3.3
2022-09-23T18:11:29.387Z,1.6
2022-09-23T18:16:29.471Z,1.0
2022-09-23T18:21:29.459Z,2.1
2022-09-23T18:26:29.475Z,2.8
2022-09-23T18:31:29.533Z,4.9
2022-09-23T18:36:29.637Z,2.9
2022-09-23T18:41:29.537Z,1.9
2022-09-23T18:51:29.511Z,2.3
2022-09-23T18:56:29.584Z,7.6
2022-09-23T19:01:29.552Z,2.2
2022-09-23T19:11:29.467Z,3.5
2022-09-23T19:16:29.397Z,2.3
2022-09-23T19:31:29.365Z,1.1
2022-09-23T19:46:28.992Z,6.6
2022-09-23T19:51:28.871Z,2.6
2022-09-23T19:56:28.797Z,3.8
2022-09-23T20:01:28.625Z,4.8
2022-09-23T20:06:28.579Z,3.3
2022-09-23T20:11:28.844Z,4.4
2022-09-23T20:16:28.433Z,2.2
2022-09-23T20:21:28.217Z,2.9
2022-09-23T20:31:28.124Z,1.9
2022-09-23T20:41:27.723Z,2.2
2022-09-23T20:46:27.485Z,5.0
2022-09-23T20:56:27.313Z,2.4
2022-09-23T21:01:27.172Z,3.3
2022-09-23T21:06:26.933Z,3.2
2022-09-23T21:11:26.734Z,2.4
2022-09-23T21:16:26.820Z,1.3
2022-09-23T21:21:26.387Z,3.2
2022-09-23T21:31:26.338Z,2.6
2022-09-23T21:36:25.848Z,3.1
2022-09-23T21:41:25.675Z,6.3
2022-09-23T21:46:25.543Z,3.3
2022-09-23T21:51:25.334Z,3.3
2022-09-23T21:56:25.164Z,1.2
2022-09-23T22:01:25.088Z,2.2
2022-09-23T22:06:24.832Z,1.8
2022-09-23T22:11:24.579Z,4.5
2022-09-23T22:16:24.392Z,1.2
2022-09-23T22:21:24.254Z,1.3
2022-09-23T22:26:23.947Z,2.5
2022-09-23T22:31:12.939Z,2.5
2022-09-23T22:36:23.512Z,2.0
2022-09-23T22:41:23.281Z,2.0
2022-09-23T22:51:22.893Z,3.2
2022-09-23T23:06:22.187Z,2.1
2022-09-23T23:11:21.972Z,2.1
2022-09-23T23:21:21.535Z,1.1
2022-09-23T23:26:21.302Z,0.9
2022-09-23T23:31:21.137Z,2.2
2022-09-23T23:41:20.952Z,1.4
2022-09-23T23:46:20.481Z,7.1
2022-09-23T23:51:20.301Z,2.7
2022-09-23T23:56:20.034Z,2.7
